Avant, Oklahoma
Current Conditions -  °F | °C
As of 4:53 AM on Saturday 01 Nov 2014 (Local Time) from KBVO Reporting Station
Clear Clear  
Wind Chill: 23°   Ceiling: Unl
Heat Index: 23°   Visibility: 10mi
Dew Point: 20°   Wind: 0mph
Humidity: 88%   Direction: NA
Pressure: 30.47"   Gusts: NA
Location:  36.49°N, 96.06°W
Report Text: KBVO 010953Z AUTO 00000KT 10SM CLR M05/M07 A3047 RMK AO2 SLP319 I1000 T10501067 $
Loading
Personal Weather Stations






























Interactive Weather Map New forecast layout! Learn more

10-Day Weather Forecast

Advertisements
Track Severe Weather on mobile